sensor_id;sensor_type;location;lat;lon;timestamp;P1;durP1;ratioP1;P2;durP2;ratioP2
39958;SDS011;25639;53.634;9.880;2023-02-16T00:01:29;74.68;;;31.35;;
39958;SDS011;25639;53.634;9.880;2023-02-16T00:03:56;71.85;;;31.25;;
39958;SDS011;25639;53.634;9.880;2023-02-16T00:06:25;68.70;;;31.63;;
39958;SDS011;25639;53.634;9.880;2023-02-16T00:08:53;72.10;;;31.45;;
39958;SDS011;25639;53.634;9.880;2023-02-16T00:11:22;71.78;;;31.52;;
39958;SDS011;25639;53.634;9.880;2023-02-16T00:14:10;68.68;;;31.48;;
39958;SDS011;25639;53.634;9.880;2023-02-16T00:16:37;77.10;;;32.92;;
39958;SDS011;25639;53.634;9.880;2023-02-16T00:19:16;62.45;;;29.75;;
39958;SDS011;25639;53.634;9.880;2023-02-16T00:21:47;73.47;;;32.42;;
39958;SDS011;25639;53.634;9.880;2023-02-16T00:24:13;73.70;;;32.20;;
39958;SDS011;25639;53.634;9.880;2023-02-16T00:26:40;71.68;;;33.13;;
39958;SDS011;25639;53.634;9.880;2023-02-16T00:29:09;70.47;;;31.50;;
39958;SDS011;25639;53.634;9.880;2023-02-16T00:31:38;72.43;;;31.10;;
39958;SDS011;25639;53.634;9.880;2023-02-16T00:36:54;68.63;;;31.63;;
39958;SDS011;25639;53.634;9.880;2023-02-16T00:39:21;70.82;;;30.95;;
39958;SDS011;25639;53.634;9.880;2023-02-16T00:41:49;70.28;;;31.42;;
39958;SDS011;25639;53.634;9.880;2023-02-16T00:44:16;74.47;;;33.63;;
39958;SDS011;25639;53.634;9.880;2023-02-16T00:46:44;73.43;;;32.03;;
39958;SDS011;25639;53.634;9.880;2023-02-16T00:49:17;73.38;;;32.85;;
39958;SDS011;25639;53.634;9.880;2023-02-16T00:51:44;74.45;;;33.15;;
39958;SDS011;25639;53.634;9.880;2023-02-16T00:54:10;74.68;;;31.92;;
39958;SDS011;25639;53.634;9.880;2023-02-16T00:56:36;77.68;;;32.88;;
39958;SDS011;25639;53.634;9.880;2023-02-16T00:59:02;76.88;;;32.45;;
39958;SDS011;25639;53.634;9.880;2023-02-16T01:01:30;74.50;;;32.92;;
39958;SDS011;25639;53.634;9.880;2023-02-16T01:03:58;83.35;;;34.75;;
39958;SDS011;25639;53.634;9.880;2023-02-16T01:06:26;75.82;;;32.17;;
39958;SDS011;25639;53.634;9.880;2023-02-16T01:09:11;71.38;;;33.28;;
39958;SDS011;25639;53.634;9.880;2023-02-16T01:11:57;79.72;;;34.13;;
39958;SDS011;25639;53.634;9.880;2023-02-16T01:14:23;73.80;;;33.45;;
39958;SDS011;25639;53.634;9.880;2023-02-16T01:16:49;74.65;;;33.08;;
39958;SDS011;25639;53.634;9.880;2023-02-16T01:19:15;72.35;;;32.58;;
39958;SDS011;25639;53.634;9.880;2023-02-16T01:21:40;71.75;;;32.20;;
39958;SDS011;25639;53.634;9.880;2023-02-16T01:24:05;68.88;;;29.90;;
39958;SDS011;25639;53.634;9.880;2023-02-16T01:26:31;78.18;;;32.97;;
39958;SDS011;25639;53.634;9.880;2023-02-16T01:29:01;72.20;;;31.80;;
39958;SDS011;25639;53.634;9.880;2023-02-16T01:31:27;70.32;;;31.15;;
39958;SDS011;25639;53.634;9.880;2023-02-16T01:33:52;71.05;;;31.13;;
39958;SDS011;25639;53.634;9.880;2023-02-16T01:36:20;73.72;;;31.52;;
39958;SDS011;25639;53.634;9.880;2023-02-16T01:38:48;73.75;;;31.80;;
39958;SDS011;25639;53.634;9.880;2023-02-16T01:41:17;75.78;;;32.60;;
39958;SDS011;25639;53.634;9.880;2023-02-16T01:44:01;70.85;;;32.67;;
39958;SDS011;25639;53.634;9.880;2023-02-16T01:46:37;75.95;;;31.88;;
39958;SDS011;25639;53.634;9.880;2023-02-16T01:49:13;73.95;;;31.08;;
39958;SDS011;25639;53.634;9.880;2023-02-16T01:54:33;70.55;;;30.50;;
39958;SDS011;25639;53.634;9.880;2023-02-16T01:57:09;69.32;;;30.75;;
39958;SDS011;25639;53.634;9.880;2023-02-16T02:02:20;70.50;;;30.77;;
39958;SDS011;25639;53.634;9.880;2023-02-16T02:04:50;69.15;;;31.17;;
39958;SDS011;25639;53.634;9.880;2023-02-16T02:16:00;75.88;;;31.67;;
39958;SDS011;25639;53.634;9.880;2023-02-16T02:18:29;75.75;;;31.20;;
39958;SDS011;25639;53.634;9.880;2023-02-16T02:21:07;68.85;;;30.95;;
39958;SDS011;25639;53.634;9.880;2023-02-16T02:26:53;74.65;;;32.20;;
39958;SDS011;25639;53.634;9.880;2023-02-16T02:29:24;68.97;;;31.35;;
39958;SDS011;25639;53.634;9.880;2023-02-16T02:32:08;75.32;;;32.92;;
39958;SDS011;25639;53.634;9.880;2023-02-16T02:37:55;79.93;;;34.63;;
39958;SDS011;25639;53.634;9.880;2023-02-16T02:44:10;73.78;;;32.78;;
39958;SDS011;25639;53.634;9.880;2023-02-16T02:46:39;76.75;;;33.65;;
39958;SDS011;25639;53.634;9.880;2023-02-16T02:49:05;70.60;;;32.20;;
39958;SDS011;25639;53.634;9.880;2023-02-16T02:51:30;84.97;;;35.92;;
39958;SDS011;25639;53.634;9.880;2023-02-16T03:03:05;80.45;;;33.72;;
39958;SDS011;25639;53.634;9.880;2023-02-16T03:05:39;75.43;;;33.00;;
39958;SDS011;25639;53.634;9.880;2023-02-16T03:08:08;76.32;;;34.55;;
39958;SDS011;25639;53.634;9.880;2023-02-16T03:10:40;85.18;;;35.55;;
39958;SDS011;25639;53.634;9.880;2023-02-16T03:13:30;73.78;;;33.45;;
39958;SDS011;25639;53.634;9.880;2023-02-16T03:15:59;79.72;;;33.28;;
39958;SDS011;25639;53.634;9.880;2023-02-16T03:18:28;68.15;;;31.92;;
39958;SDS011;25639;53.634;9.880;2023-02-16T03:21:18;79.10;;;33.13;;
39958;SDS011;25639;53.634;9.880;2023-02-16T03:24:02;74.35;;;33.00;;
39958;SDS011;25639;53.634;9.880;2023-02-16T03:26:48;71.18;;;32.42;;
39958;SDS011;25639;53.634;9.880;2023-02-16T03:29:34;77.78;;;33.42;;
39958;SDS011;25639;53.634;9.880;2023-02-16T03:32:01;72.35;;;31.65;;
39958;SDS011;25639;53.634;9.880;2023-02-16T03:34:26;85.70;;;32.55;;
39958;SDS011;25639;53.634;9.880;2023-02-16T03:36:54;70.95;;;31.48;;
39958;SDS011;25639;53.634;9.880;2023-02-16T03:39:23;77.15;;;33.45;;
39958;SDS011;25639;53.634;9.880;2023-02-16T03:41:51;73.57;;;32.60;;
39958;SDS011;25639;53.634;9.880;2023-02-16T03:44:18;79.97;;;33.97;;
39958;SDS011;25639;53.634;9.880;2023-02-16T03:46:44;79.82;;;33.72;;
39958;SDS011;25639;53.634;9.880;2023-02-16T03:49:09;77.72;;;32.55;;
39958;SDS011;25639;53.634;9.880;2023-02-16T03:51:34;77.38;;;33.60;;
39958;SDS011;25639;53.634;9.880;2023-02-16T03:54:00;77.97;;;34.65;;
39958;SDS011;25639;53.634;9.880;2023-02-16T03:56:25;77.32;;;33.38;;
39958;SDS011;25639;53.634;9.880;2023-02-16T03:58:51;80.65;;;34.20;;
39958;SDS011;25639;53.634;9.880;2023-02-16T04:01:16;77.95;;;33.50;;
39958;SDS011;25639;53.634;9.880;2023-02-16T04:03:41;69.20;;;32.13;;
39958;SDS011;25639;53.634;9.880;2023-02-16T04:06:07;70.15;;;32.10;;
39958;SDS011;25639;53.634;9.880;2023-02-16T04:08:32;69.10;;;31.83;;
39958;SDS011;25639;53.634;9.880;2023-02-16T04:10:57;70.03;;;30.60;;
39958;SDS011;25639;53.634;9.880;2023-02-16T04:13:24;71.93;;;32.67;;
39958;SDS011;25639;53.634;9.880;2023-02-16T04:15:50;76.03;;;32.85;;
39958;SDS011;25639;53.634;9.880;2023-02-16T04:18:16;68.97;;;30.52;;
39958;SDS011;25639;53.634;9.880;2023-02-16T04:20:41;73.82;;;32.47;;
39958;SDS011;25639;53.634;9.880;2023-02-16T04:23:06;69.97;;;32.33;;
39958;SDS011;25639;53.634;9.880;2023-02-16T04:25:32;79.43;;;34.08;;
39958;SDS011;25639;53.634;9.880;2023-02-16T04:27:58;80.55;;;32.65;;
39958;SDS011;25639;53.634;9.880;2023-02-16T04:30:24;74.10;;;33.60;;
39958;SDS011;25639;53.634;9.880;2023-02-16T04:32:51;73.68;;;31.17;;
39958;SDS011;25639;53.634;9.880;2023-02-16T04:35:18;75.03;;;33.67;;
39958;SDS011;25639;53.634;9.880;2023-02-16T04:37:44;76.57;;;33.03;;
39958;SDS011;25639;53.634;9.880;2023-02-16T04:40:09;74.85;;;33.00;;
39958;SDS011;25639;53.634;9.880;2023-02-16T04:42:42;73.50;;;32.47;;
39958;SDS011;25639;53.634;9.880;2023-02-16T04:45:08;69.20;;;32.10;;
39958;SDS011;25639;53.634;9.880;2023-02-16T04:47:35;71.30;;;30.38;;
39958;SDS011;25639;53.634;9.880;2023-02-16T04:50:00;75.15;;;33.15;;
39958;SDS011;25639;53.634;9.880;2023-02-16T04:52:25;75.05;;;32.58;;
39958;SDS011;25639;53.634;9.880;2023-02-16T04:54:51;77.20;;;32.58;;
39958;SDS011;25639;53.634;9.880;2023-02-16T04:57:16;78.20;;;33.60;;
39958;SDS011;25639;53.634;9.880;2023-02-16T04:59:43;70.38;;;32.53;;
39958;SDS011;25639;53.634;9.880;2023-02-16T05:02:08;71.13;;;32.40;;
39958;SDS011;25639;53.634;9.880;2023-02-16T05:04:33;71.95;;;31.25;;
39958;SDS011;25639;53.634;9.880;2023-02-16T05:06:59;68.72;;;30.45;;
39958;SDS011;25639;53.634;9.880;2023-02-16T05:09:24;69.60;;;31.27;;
39958;SDS011;25639;53.634;9.880;2023-02-16T05:11:49;78.35;;;32.22;;
39958;SDS011;25639;53.634;9.880;2023-02-16T05:14:34;72.95;;;30.13;;
39958;SDS011;25639;53.634;9.880;2023-02-16T05:17:06;73.30;;;30.85;;
39958;SDS011;25639;53.634;9.880;2023-02-16T05:19:47;76.00;;;31.83;;
39958;SDS011;25639;53.634;9.880;2023-02-16T05:22:16;72.30;;;31.10;;
39958;SDS011;25639;53.634;9.880;2023-02-16T05:24:42;71.03;;;31.15;;
39958;SDS011;25639;53.634;9.880;2023-02-16T05:27:10;78.13;;;32.40;;
39958;SDS011;25639;53.634;9.880;2023-02-16T05:29:41;71.32;;;30.77;;
39958;SDS011;25639;53.634;9.880;2023-02-16T05:32:06;76.07;;;31.95;;
39958;SDS011;25639;53.634;9.880;2023-02-16T05:34:31;71.60;;;30.50;;
39958;SDS011;25639;53.634;9.880;2023-02-16T05:36:57;69.85;;;31.38;;
39958;SDS011;25639;53.634;9.880;2023-02-16T05:39:22;65.57;;;29.80;;
39958;SDS011;25639;53.634;9.880;2023-02-16T05:41:47;75.80;;;31.45;;
39958;SDS011;25639;53.634;9.880;2023-02-16T05:44:13;70.22;;;30.75;;
39958;SDS011;25639;53.634;9.880;2023-02-16T05:46:39;63.25;;;29.45;;
39958;SDS011;25639;53.634;9.880;2023-02-16T05:49:06;71.53;;;30.38;;
39958;SDS011;25639;53.634;9.880;2023-02-16T05:51:32;71.13;;;30.88;;
39958;SDS011;25639;53.634;9.880;2023-02-16T05:53:57;71.43;;;30.80;;
39958;SDS011;25639;53.634;9.880;2023-02-16T05:56:23;72.93;;;31.98;;
39958;SDS011;25639;53.634;9.880;2023-02-16T05:58:49;73.72;;;32.20;;
39958;SDS011;25639;53.634;9.880;2023-02-16T06:01:14;74.28;;;32.25;;
39958;SDS011;25639;53.634;9.880;2023-02-16T06:03:40;68.45;;;31.17;;
39958;SDS011;25639;53.634;9.880;2023-02-16T06:06:06;73.45;;;33.55;;
39958;SDS011;25639;53.634;9.880;2023-02-16T06:08:32;79.55;;;32.95;;
39958;SDS011;25639;53.634;9.880;2023-02-16T06:10:58;81.03;;;33.75;;
39958;SDS011;25639;53.634;9.880;2023-02-16T06:13:23;74.78;;;31.35;;
39958;SDS011;25639;53.634;9.880;2023-02-16T06:15:50;77.18;;;33.45;;
39958;SDS011;25639;53.634;9.880;2023-02-16T06:18:17;74.28;;;32.95;;
39958;SDS011;25639;53.634;9.880;2023-02-16T06:20:43;74.18;;;31.83;;
39958;SDS011;25639;53.634;9.880;2023-02-16T06:23:09;79.03;;;32.22;;
39958;SDS011;25639;53.634;9.880;2023-02-16T06:25:35;69.32;;;32.30;;
39958;SDS011;25639;53.634;9.880;2023-02-16T06:28:01;68.53;;;30.38;;
39958;SDS011;25639;53.634;9.880;2023-02-16T06:30:26;75.20;;;30.85;;
39958;SDS011;25639;53.634;9.880;2023-02-16T06:32:52;67.88;;;31.05;;
39958;SDS011;25639;53.634;9.880;2023-02-16T06:35:17;71.13;;;30.55;;
39958;SDS011;25639;53.634;9.880;2023-02-16T06:37:42;67.78;;;31.42;;
39958;SDS011;25639;53.634;9.880;2023-02-16T06:40:08;70.32;;;32.72;;
39958;SDS011;25639;53.634;9.880;2023-02-16T06:42:35;83.78;;;33.42;;
39958;SDS011;25639;53.634;9.880;2023-02-16T06:45:01;70.97;;;32.88;;
39958;SDS011;25639;53.634;9.880;2023-02-16T06:47:26;87.43;;;34.38;;
39958;SDS011;25639;53.634;9.880;2023-02-16T06:49:51;77.03;;;34.38;;
39958;SDS011;25639;53.634;9.880;2023-02-16T06:52:17;72.25;;;33.80;;
39958;SDS011;25639;53.634;9.880;2023-02-16T06:54:42;79.30;;;33.25;;
39958;SDS011;25639;53.634;9.880;2023-02-16T06:57:07;83.25;;;34.28;;
39958;SDS011;25639;53.634;9.880;2023-02-16T06:59:32;73.32;;;32.78;;
39958;SDS011;25639;53.634;9.880;2023-02-16T07:01:58;82.10;;;34.85;;
39958;SDS011;25639;53.634;9.880;2023-02-16T07:04:23;86.40;;;34.78;;
39958;SDS011;25639;53.634;9.880;2023-02-16T07:06:48;76.32;;;34.67;;
39958;SDS011;25639;53.634;9.880;2023-02-16T07:09:13;79.85;;;33.40;;
39958;SDS011;25639;53.634;9.880;2023-02-16T07:11:39;76.18;;;34.17;;
39958;SDS011;25639;53.634;9.880;2023-02-16T07:14:04;84.65;;;35.03;;
39958;SDS011;25639;53.634;9.880;2023-02-16T07:16:29;78.63;;;34.83;;
39958;SDS011;25639;53.634;9.880;2023-02-16T07:18:55;81.60;;;34.47;;
39958;SDS011;25639;53.634;9.880;2023-02-16T07:21:20;75.15;;;33.28;;
39958;SDS011;25639;53.634;9.880;2023-02-16T07:23:45;74.25;;;32.55;;
39958;SDS011;25639;53.634;9.880;2023-02-16T07:26:11;82.53;;;33.65;;
39958;SDS011;25639;53.634;9.880;2023-02-16T07:28:36;81.53;;;34.17;;
39958;SDS011;25639;53.634;9.880;2023-02-16T07:31:05;74.43;;;33.67;;
39958;SDS011;25639;53.634;9.880;2023-02-16T07:33:35;74.57;;;32.55;;
39958;SDS011;25639;53.634;9.880;2023-02-16T07:36:01;80.20;;;34.13;;
39958;SDS011;25639;53.634;9.880;2023-02-16T07:38:26;75.93;;;33.72;;
39958;SDS011;25639;53.634;9.880;2023-02-16T07:40:51;82.38;;;35.67;;
39958;SDS011;25639;53.634;9.880;2023-02-16T07:43:17;81.60;;;35.20;;
39958;SDS011;25639;53.634;9.880;2023-02-16T07:45:42;80.18;;;35.88;;
39958;SDS011;25639;53.634;9.880;2023-02-16T07:48:08;81.57;;;35.53;;
39958;SDS011;25639;53.634;9.880;2023-02-16T07:50:33;79.03;;;36.58;;
39958;SDS011;25639;53.634;9.880;2023-02-16T07:53:03;78.32;;;34.78;;
39958;SDS011;25639;53.634;9.880;2023-02-16T07:55:29;72.78;;;33.05;;
39958;SDS011;25639;53.634;9.880;2023-02-16T07:57:54;76.00;;;33.95;;
39958;SDS011;25639;53.634;9.880;2023-02-16T08:00:24;80.15;;;35.33;;
39958;SDS011;25639;53.634;9.880;2023-02-16T08:02:50;80.78;;;34.78;;
39958;SDS011;25639;53.634;9.880;2023-02-16T08:05:16;80.28;;;35.50;;
39958;SDS011;25639;53.634;9.880;2023-02-16T08:07:41;80.35;;;35.75;;
39958;SDS011;25639;53.634;9.880;2023-02-16T08:10:07;77.93;;;35.42;;
39958;SDS011;25639;53.634;9.880;2023-02-16T08:12:33;83.45;;;38.42;;
39958;SDS011;25639;53.634;9.880;2023-02-16T08:14:58;75.60;;;35.40;;
39958;SDS011;25639;53.634;9.880;2023-02-16T08:17:23;71.70;;;33.97;;
39958;SDS011;25639;53.634;9.880;2023-02-16T08:19:49;74.80;;;34.60;;
39958;SDS011;25639;53.634;9.880;2023-02-16T08:22:15;78.95;;;35.95;;
39958;SDS011;25639;53.634;9.880;2023-02-16T08:24:41;76.20;;;34.55;;
39958;SDS011;25639;53.634;9.880;2023-02-16T08:27:07;77.40;;;35.55;;
39958;SDS011;25639;53.634;9.880;2023-02-16T08:29:32;78.95;;;34.25;;
39958;SDS011;25639;53.634;9.880;2023-02-16T08:31:57;74.38;;;35.13;;
39958;SDS011;25639;53.634;9.880;2023-02-16T08:34:23;77.50;;;35.30;;
39958;SDS011;25639;53.634;9.880;2023-02-16T08:36:53;78.70;;;34.85;;
39958;SDS011;25639;53.634;9.880;2023-02-16T08:39:21;77.20;;;35.20;;
39958;SDS011;25639;53.634;9.880;2023-02-16T08:41:48;78.47;;;35.17;;
39958;SDS011;25639;53.634;9.880;2023-02-16T08:44:15;81.85;;;35.83;;
39958;SDS011;25639;53.634;9.880;2023-02-16T08:46:42;77.28;;;35.10;;
39958;SDS011;25639;53.634;9.880;2023-02-16T08:49:08;71.95;;;35.08;;
39958;SDS011;25639;53.634;9.880;2023-02-16T08:51:35;74.55;;;34.28;;
39958;SDS011;25639;53.634;9.880;2023-02-16T08:54:03;71.75;;;34.00;;
39958;SDS011;25639;53.634;9.880;2023-02-16T08:56:29;71.88;;;33.95;;
39958;SDS011;25639;53.634;9.880;2023-02-16T08:58:56;75.50;;;33.97;;
39958;SDS011;25639;53.634;9.880;2023-02-16T09:01:21;71.57;;;34.55;;
39958;SDS011;25639;53.634;9.880;2023-02-16T09:03:48;70.07;;;33.70;;
39958;SDS011;25639;53.634;9.880;2023-02-16T09:06:14;69.43;;;33.42;;
39958;SDS011;25639;53.634;9.880;2023-02-16T09:08:41;70.32;;;33.72;;
39958;SDS011;25639;53.634;9.880;2023-02-16T09:11:08;71.30;;;33.17;;
39958;SDS011;25639;53.634;9.880;2023-02-16T09:13:36;65.40;;;32.03;;
39958;SDS011;25639;53.634;9.880;2023-02-16T09:16:23;74.10;;;33.08;;
39958;SDS011;25639;53.634;9.880;2023-02-16T09:18:48;70.93;;;34.35;;
39958;SDS011;25639;53.634;9.880;2023-02-16T09:21:19;70.75;;;33.25;;
39958;SDS011;25639;53.634;9.880;2023-02-16T09:23:46;77.15;;;35.55;;
39958;SDS011;25639;53.634;9.880;2023-02-16T09:26:14;77.63;;;35.72;;
39958;SDS011;25639;53.634;9.880;2023-02-16T09:28:41;78.97;;;37.75;;
39958;SDS011;25639;53.634;9.880;2023-02-16T09:31:10;75.45;;;35.05;;
39958;SDS011;25639;53.634;9.880;2023-02-16T09:33:38;78.22;;;37.42;;
39958;SDS011;25639;53.634;9.880;2023-02-16T09:36:07;76.15;;;36.65;;
39958;SDS011;25639;53.634;9.880;2023-02-16T09:38:35;68.22;;;34.97;;
39958;SDS011;25639;53.634;9.880;2023-02-16T09:41:04;73.78;;;36.00;;
39958;SDS011;25639;53.634;9.880;2023-02-16T09:46:47;69.50;;;35.17;;
39958;SDS011;25639;53.634;9.880;2023-02-16T09:49:23;72.00;;;35.92;;
39958;SDS011;25639;53.634;9.880;2023-02-16T09:52:39;73.20;;;35.30;;
39958;SDS011;25639;53.634;9.880;2023-02-16T09:54:57;71.30;;;36.13;;
39958;SDS011;25639;53.634;9.880;2023-02-16T10:05:18;72.00;;;35.78;;
39958;SDS011;25639;53.634;9.880;2023-02-16T10:07:50;69.23;;;35.60;;
39958;SDS011;25639;53.634;9.880;2023-02-16T10:10:25;71.50;;;35.25;;
39958;SDS011;25639;53.634;9.880;2023-02-16T10:13:18;75.07;;;35.65;;
39958;SDS011;25639;53.634;9.880;2023-02-16T10:15:50;73.28;;;36.80;;
39958;SDS011;25639;53.634;9.880;2023-02-16T10:20:54;73.72;;;35.63;;
39958;SDS011;25639;53.634;9.880;2023-02-16T10:23:28;77.38;;;37.90;;
39958;SDS011;25639;53.634;9.880;2023-02-16T10:26:21;74.30;;;35.75;;
39958;SDS011;25639;53.634;9.880;2023-02-16T10:28:53;72.00;;;36.17;;
39958;SDS011;25639;53.634;9.880;2023-02-16T10:37:01;74.07;;;35.97;;
39958;SDS011;25639;53.634;9.880;2023-02-16T10:39:39;72.20;;;37.15;;
39958;SDS011;25639;53.634;9.880;2023-02-16T10:44:43;70.95;;;36.03;;
39958;SDS011;25639;53.634;9.880;2023-02-16T10:50:04;81.43;;;37.53;;
39958;SDS011;25639;53.634;9.880;2023-02-16T10:52:39;71.38;;;35.20;;
39958;SDS011;25639;53.634;9.880;2023-02-16T10:55:06;77.13;;;38.38;;
39958;SDS011;25639;53.634;9.880;2023-02-16T10:57:31;72.15;;;36.90;;
39958;SDS011;25639;53.634;9.880;2023-02-16T11:00:02;76.47;;;37.20;;
39958;SDS011;25639;53.634;9.880;2023-02-16T11:02:37;72.72;;;35.60;;
39958;SDS011;25639;53.634;9.880;2023-02-16T11:07:58;74.85;;;36.72;;
39958;SDS011;25639;53.634;9.880;2023-02-16T11:13:00;74.38;;;35.67;;
39958;SDS011;25639;53.634;9.880;2023-02-16T11:15:26;76.82;;;37.10;;
39958;SDS011;25639;53.634;9.880;2023-02-16T11:18:00;76.75;;;36.90;;
39958;SDS011;25639;53.634;9.880;2023-02-16T11:25:56;72.38;;;35.33;;
39958;SDS011;25639;53.634;9.880;2023-02-16T11:28:45;79.03;;;38.25;;
39958;SDS011;25639;53.634;9.880;2023-02-16T11:31:31;81.88;;;39.50;;
39958;SDS011;25639;53.634;9.880;2023-02-16T11:36:33;76.05;;;38.92;;
39958;SDS011;25639;53.634;9.880;2023-02-16T11:41:50;75.03;;;36.15;;
39958;SDS011;25639;53.634;9.880;2023-02-16T11:44:28;78.90;;;39.90;;
39958;SDS011;25639;53.634;9.880;2023-02-16T11:46:57;82.45;;;39.47;;
39958;SDS011;25639;53.634;9.880;2023-02-16T11:49:32;81.82;;;39.30;;
39958;SDS011;25639;53.634;9.880;2023-02-16T11:52:16;76.70;;;39.25;;
39958;SDS011;25639;53.634;9.880;2023-02-16T11:54:55;77.10;;;38.30;;
39958;SDS011;25639;53.634;9.880;2023-02-16T11:57:32;78.93;;;41.70;;
39958;SDS011;25639;53.634;9.880;2023-02-16T12:00:00;75.95;;;38.28;;
39958;SDS011;25639;53.634;9.880;2023-02-16T12:05:43;83.38;;;40.20;;
39958;SDS011;25639;53.634;9.880;2023-02-16T12:11:17;81.13;;;39.45;;
39958;SDS011;25639;53.634;9.880;2023-02-16T12:19:40;78.85;;;39.20;;
39958;SDS011;25639;53.634;9.880;2023-02-16T12:22:19;90.75;;;40.97;;
39958;SDS011;25639;53.634;9.880;2023-02-16T12:25:05;88.40;;;40.38;;
39958;SDS011;25639;53.634;9.880;2023-02-16T12:33:30;95.13;;;42.03;;
39958;SDS011;25639;53.634;9.880;2023-02-16T12:36:22;103.37;;;43.10;;
39958;SDS011;25639;53.634;9.880;2023-02-16T12:42:07;99.50;;;42.25;;
39958;SDS011;25639;53.634;9.880;2023-02-16T12:44:58;100.13;;;43.38;;
39958;SDS011;25639;53.634;9.880;2023-02-16T12:52:38;109.07;;;46.20;;
39958;SDS011;25639;53.634;9.880;2023-02-16T12:55:09;106.47;;;44.50;;
39958;SDS011;25639;53.634;9.880;2023-02-16T12:57:45;110.28;;;45.08;;
39958;SDS011;25639;53.634;9.880;2023-02-16T13:00:32;111.90;;;45.95;;
39958;SDS011;25639;53.634;9.880;2023-02-16T13:03:14;111.25;;;46.00;;
39958;SDS011;25639;53.634;9.880;2023-02-16T13:06:02;116.40;;;46.22;;
39958;SDS011;25639;53.634;9.880;2023-02-16T13:08:47;114.28;;;46.20;;
39958;SDS011;25639;53.634;9.880;2023-02-16T13:11:31;113.25;;;48.97;;
39958;SDS011;25639;53.634;9.880;2023-02-16T13:14:02;114.88;;;47.47;;
39958;SDS011;25639;53.634;9.880;2023-02-16T13:19:12;120.28;;;48.88;;
39958;SDS011;25639;53.634;9.880;2023-02-16T13:36:28;123.53;;;50.35;;
39958;SDS011;25639;53.634;9.880;2023-02-16T13:44:54;111.47;;;48.30;;
39958;SDS011;25639;53.634;9.880;2023-02-16T13:47:25;116.25;;;48.85;;
39958;SDS011;25639;53.634;9.880;2023-02-16T13:50:02;111.53;;;47.72;;
39958;SDS011;25639;53.634;9.880;2023-02-16T13:52:48;116.65;;;48.10;;
39958;SDS011;25639;53.634;9.880;2023-02-16T14:05:50;113.78;;;48.08;;
39958;SDS011;25639;53.634;9.880;2023-02-16T14:08:38;114.95;;;49.13;;
39958;SDS011;25639;53.634;9.880;2023-02-16T14:11:05;117.10;;;48.55;;
39958;SDS011;25639;53.634;9.880;2023-02-16T14:16:03;112.80;;;48.10;;
39958;SDS011;25639;53.634;9.880;2023-02-16T14:21:05;107.85;;;48.40;;
39958;SDS011;25639;53.634;9.880;2023-02-16T14:23:42;122.47;;;51.33;;
39958;SDS011;25639;53.634;9.880;2023-02-16T14:26:07;132.18;;;51.38;;
39958;SDS011;25639;53.634;9.880;2023-02-16T14:31:28;119.40;;;49.92;;
39958;SDS011;25639;53.634;9.880;2023-02-16T14:34:04;122.28;;;50.63;;
39958;SDS011;25639;53.634;9.880;2023-02-16T14:37:07;109.03;;;50.08;;
39958;SDS011;25639;53.634;9.880;2023-02-16T14:39:46;108.35;;;47.30;;
39958;SDS011;25639;53.634;9.880;2023-02-16T14:42:17;108.07;;;47.80;;
39958;SDS011;25639;53.634;9.880;2023-02-16T14:50:10;109.28;;;50.47;;
39958;SDS011;25639;53.634;9.880;2023-02-16T15:03:18;111.45;;;49.92;;
39958;SDS011;25639;53.634;9.880;2023-02-16T15:05:56;113.95;;;51.20;;
39958;SDS011;25639;53.634;9.880;2023-02-16T15:08:28;108.93;;;49.88;;
39958;SDS011;25639;53.634;9.880;2023-02-16T15:10:58;112.00;;;47.47;;
39958;SDS011;25639;53.634;9.880;2023-02-16T15:13:38;104.22;;;46.05;;
39958;SDS011;25639;53.634;9.880;2023-02-16T15:16:03;112.80;;;47.58;;
39958;SDS011;25639;53.634;9.880;2023-02-16T15:18:38;101.25;;;46.72;;
39958;SDS011;25639;53.634;9.880;2023-02-16T15:21:15;108.55;;;48.60;;
39958;SDS011;25639;53.634;9.880;2023-02-16T15:23:49;102.60;;;46.72;;
39958;SDS011;25639;53.634;9.880;2023-02-16T15:26:20;106.43;;;47.20;;
39958;SDS011;25639;53.634;9.880;2023-02-16T15:28:55;104.15;;;48.47;;
39958;SDS011;25639;53.634;9.880;2023-02-16T15:31:27;106.50;;;47.75;;
39958;SDS011;25639;53.634;9.880;2023-02-16T15:33:58;100.47;;;46.28;;
39958;SDS011;25639;53.634;9.880;2023-02-16T15:39:25;99.15;;;46.83;;
39958;SDS011;25639;53.634;9.880;2023-02-16T15:41:54;100.82;;;47.10;;
39958;SDS011;25639;53.634;9.880;2023-02-16T15:44:40;101.38;;;48.03;;
39958;SDS011;25639;53.634;9.880;2023-02-16T15:47:10;104.35;;;46.83;;
39958;SDS011;25639;53.634;9.880;2023-02-16T15:49:41;105.97;;;49.80;;
39958;SDS011;25639;53.634;9.880;2023-02-16T15:52:11;101.57;;;47.55;;
39958;SDS011;25639;53.634;9.880;2023-02-16T15:54:40;102.25;;;47.20;;
39958;SDS011;25639;53.634;9.880;2023-02-16T15:57:20;115.13;;;52.47;;
39958;SDS011;25639;53.634;9.880;2023-02-16T15:59:58;104.88;;;50.60;;
39958;SDS011;25639;53.634;9.880;2023-02-16T16:05:19;99.72;;;49.47;;
39958;SDS011;25639;53.634;9.880;2023-02-16T16:07:47;108.43;;;50.60;;
39958;SDS011;25639;53.634;9.880;2023-02-16T16:10:19;103.18;;;49.40;;
39958;SDS011;25639;53.634;9.880;2023-02-16T16:15:18;103.32;;;49.63;;
39958;SDS011;25639;53.634;9.880;2023-02-16T16:17:49;109.63;;;50.90;;
39958;SDS011;25639;53.634;9.880;2023-02-16T16:20:22;108.55;;;50.78;;
39958;SDS011;25639;53.634;9.880;2023-02-16T16:28:01;104.53;;;50.22;;
39958;SDS011;25639;53.634;9.880;2023-02-16T16:30:28;106.90;;;50.08;;
39958;SDS011;25639;53.634;9.880;2023-02-16T16:35:39;108.53;;;51.17;;
39958;SDS011;25639;53.634;9.880;2023-02-16T16:38:21;103.68;;;49.33;;
39958;SDS011;25639;53.634;9.880;2023-02-16T16:40:50;104.85;;;49.38;;
39958;SDS011;25639;53.634;9.880;2023-02-16T16:43:18;110.18;;;53.10;;
39958;SDS011;25639;53.634;9.880;2023-02-16T16:45:48;115.80;;;54.75;;
39958;SDS011;25639;53.634;9.880;2023-02-16T16:48:24;114.90;;;52.17;;
39958;SDS011;25639;53.634;9.880;2023-02-16T16:56:21;120.38;;;55.47;;
39958;SDS011;25639;53.634;9.880;2023-02-16T16:58:48;121.90;;;56.83;;
39958;SDS011;25639;53.634;9.880;2023-02-16T17:01:15;123.13;;;57.50;;
39958;SDS011;25639;53.634;9.880;2023-02-16T17:03:40;122.93;;;56.05;;
39958;SDS011;25639;53.634;9.880;2023-02-16T17:06:06;121.78;;;55.08;;
39958;SDS011;25639;53.634;9.880;2023-02-16T17:08:32;124.82;;;56.20;;
39958;SDS011;25639;53.634;9.880;2023-02-16T17:10:58;115.45;;;55.92;;
39958;SDS011;25639;53.634;9.880;2023-02-16T17:13:24;114.75;;;53.58;;
39958;SDS011;25639;53.634;9.880;2023-02-16T17:15:59;111.38;;;51.17;;
39958;SDS011;25639;53.634;9.880;2023-02-16T17:18:25;118.88;;;54.55;;
39958;SDS011;25639;53.634;9.880;2023-02-16T17:20:51;113.82;;;50.92;;
39958;SDS011;25639;53.634;9.880;2023-02-16T17:23:17;113.22;;;52.15;;
39958;SDS011;25639;53.634;9.880;2023-02-16T17:25:44;117.35;;;53.17;;
39958;SDS011;25639;53.634;9.880;2023-02-16T17:28:10;123.47;;;53.88;;
39958;SDS011;25639;53.634;9.880;2023-02-16T17:30:37;114.18;;;54.35;;
39958;SDS011;25639;53.634;9.880;2023-02-16T17:33:03;120.60;;;53.38;;
39958;SDS011;25639;53.634;9.880;2023-02-16T17:35:30;117.85;;;53.20;;
39958;SDS011;25639;53.634;9.880;2023-02-16T17:37:56;119.65;;;53.15;;